EDFHEDDN

Guest
Details From EDFH - Frankfurt Hahn
To EDDN - Nurnberg
Flight Number -
Tags Generated
Created
Modified
Stats Distance 150 nm / 278 km
Max Altitude 0 ft / 0 m
Waypoints 2
Social Downloads 2
Likes 0
Share VATSIM

Download

Looking for another format? Having issues loading an existing format? Contact us
Advertisement - Login to hide

Notes

Generated

Route

EDFH EDDN

ID Type Via Altitude Latitude Longitude Leg Dist Tot Dist Heading (true) Name
O EDFH APT - 0 ft / 0 m 49.93139˚ 7.24688˚ - 0 nm - -
O EDDN APT - 0 ft / 0 m 49.50055˚ 11.05918˚ 150 nm 150 nm 98° / 101° -

Altitude Profile

Advertisement - Login to hide

EDFH

Details ICAO EDFH (HHN)
Name Frankfurt Hahn
Region Germany - Civil
Timezone Europe/Berlin (UTC+1.0)
Stats Elevation 1,649 ft / 503 m (AMSL)
Location 49.945808° 7.261082°
Runways 1
Magnetic Variation 1.982° E

METAR

EDFH 160320Z 36004KT 320V030 0300 R21/0350V0500N FZFG VV/// M00/M00 Q1003

Decode

TAF

TAF AMD EDFH 160352Z 1603/1624 VRB03KT 5000 -SN BR SCT002 BKN015 TEMPO 1603/1609 0500 -SN FZFG BKN001 BECMG 1606/1609 28008KT TEMPO 1609/1624 1200 SHSN BKN001 BKN010CB

Decode

Departure Runways

ID Width Length Bearing (true) Bearing (mag) Surface Threshold Offset Overrun Length
03 148 ft / 45 m 12,457 ft / 3,797 m 32.37° 30.39° Asphalt 3,461 ft / 1,055 m 0 ft / 0 m
21 148 ft / 45 m 12,457 ft / 3,797 m 212.39° 210.41° Asphalt 984 ft / 300 m 0 ft / 0 m

EDDN

Details ICAO EDDN (NUE)
Name Nurnberg
Region Germany - Civil
Timezone Europe/Berlin (UTC+1.0)
Stats Elevation 1,045 ft / 319 m (AMSL)
Location 49.498744° 11.077580°
Runways 1
Magnetic Variation 3.019° E

METAR

EDDN 160320Z 14002KT 9999 FEW015 BKN060 M00/M00 Q1002 R28/29//95

Decode

TAF

TAF EDDN 152300Z 1600/1624 14005KT 9999 BKN030 TEMPO 1601/1618 3000 -SHSN BKN012TCU PROB30 TEMPO 1604/1609 30015G25KT 1000 SHSN VV004 BKN010CB BECMG 1610/1612 30007KT TEMPO 1618/1624 4000 -SN BKN012

Decode

Destination Runways

ID Width Length Bearing (true) Bearing (mag) Surface Threshold Offset Overrun Length
10 148 ft / 45 m 8,819 ft / 2,688 m 98.60° 95.58° Asphalt 0 ft / 0 m 0 ft / 0 m
28 148 ft / 45 m 8,819 ft / 2,688 m 278.63° 275.61° Asphalt 0 ft / 0 m 0 ft / 0 m

Approach Navaids

Runway Type Ident Frequency Range Bearing (true) Bearing (mag) Slope Elevation
10 Localiser INUE 111.30 MHz 18 nm / 33 km 98.64° 95.62° - 1,046 ft / 319 m (AMSL)
10 Glidescope INUE 111.30 MHz 10 nm / 19 km 98.61° 95.60° 3.00° 1,022 ft / 312 m (AMSL)
28 Localiser INUW 109.10 MHz 23 nm / 43 km 278.59° 275.57° - 1,122 ft / 342 m (AMSL)
28 Glidescope INUW 109.10 MHz 10 nm / 19 km 278.62° 275.60° 3.00° 1,046 ft / 319 m (AMSL)

Popular Alternatives